createdAt,value
2023-10-19T00:00:49.340Z,12.50
2023-10-19T00:03:19.623Z,13.60
2023-10-19T00:05:47.452Z,12.50
2023-10-19T00:08:14.246Z,12.20
2023-10-19T00:10:43.771Z,13.10
2023-10-19T00:13:14.535Z,12.90
2023-10-19T00:15:49.069Z,13.00
2023-10-19T00:18:16.280Z,12.70
2023-10-19T00:20:46.704Z,13.90
2023-10-19T00:23:14.496Z,13.80
2023-10-19T00:25:45.055Z,12.90
2023-10-19T00:28:15.886Z,13.20
2023-10-19T00:30:43.102Z,13.80
2023-10-19T00:33:21.648Z,14.30
2023-10-19T00:36:00.349Z,14.20
2023-10-19T00:38:28.315Z,14.00
2023-10-19T00:40:59.663Z,13.30
2023-10-19T00:43:29.498Z,14.10
2023-10-19T00:45:58.979Z,13.60
2023-10-19T00:48:26.657Z,13.50
2023-10-19T00:51:03.963Z,13.60
2023-10-19T00:53:30.658Z,14.30
2023-10-19T00:56:01.567Z,14.20
2023-10-19T00:58:30.995Z,14.20
2023-10-19T01:01:00.361Z,14.70
2023-10-19T01:03:32.897Z,12.40
2023-10-19T01:06:01.447Z,13.60
2023-10-19T01:08:36.536Z,13.10
2023-10-19T01:11:15.716Z,14.40
2023-10-19T01:13:45.292Z,13.80
2023-10-19T01:16:21.451Z,14.10
2023-10-19T01:18:54.149Z,13.90
2023-10-19T01:21:28.062Z,15.20
2023-10-19T01:23:55.752Z,14.30
2023-10-19T01:26:22.876Z,15.00
2023-10-19T01:28:52.321Z,12.60
2023-10-19T01:31:23.406Z,12.30
2023-10-19T01:33:50.981Z,14.70
2023-10-19T01:36:26.877Z,14.30
2023-10-19T01:39:01.138Z,15.30
2023-10-19T01:41:28.383Z,14.00
2023-10-19T01:43:55.210Z,14.80
2023-10-19T01:46:25.825Z,14.90
2023-10-19T01:48:57.041Z,14.00
2023-10-19T01:51:25.395Z,13.70
2023-10-19T01:53:51.844Z,13.50
2023-10-19T01:56:18.576Z,13.30
2023-10-19T01:58:49.150Z,14.70
2023-10-19T02:01:29.003Z,13.20
2023-10-19T02:04:00.011Z,14.30
2023-10-19T02:06:29.345Z,13.60
2023-10-19T02:09:01.323Z,13.20
2023-10-19T02:11:29.129Z,13.20
2023-10-19T02:14:00.304Z,13.90
2023-10-19T02:16:30.049Z,13.90
2023-10-19T02:18:57.130Z,14.70
2023-10-19T02:21:27.543Z,13.40
2023-10-19T02:23:54.160Z,13.20
2023-10-19T02:26:30.042Z,14.60
2023-10-19T02:28:56.812Z,14.50
2023-10-19T02:31:24.055Z,14.20
2023-10-19T02:34:03.448Z,13.90
2023-10-19T02:36:31.344Z,14.00
2023-10-19T02:39:12.245Z,14.10
2023-10-19T02:41:40.418Z,15.40
2023-10-19T02:44:23.413Z,15.00
2023-10-19T02:47:01.656Z,15.10
2023-10-19T02:49:36.551Z,13.20
2023-10-19T02:52:06.217Z,14.10
2023-10-19T02:54:36.131Z,15.40
2023-10-19T02:57:07.122Z,14.70
2023-10-19T02:59:33.715Z,17.40
2023-10-19T03:02:12.892Z,14.30
2023-10-19T03:04:42.335Z,13.80
2023-10-19T03:07:10.437Z,14.40
2023-10-19T03:09:36.939Z,15.60
2023-10-19T03:12:04.812Z,15.20
2023-10-19T03:14:33.059Z,13.30
2023-10-19T03:17:00.903Z,22.20
2023-10-19T03:19:28.916Z,14.90
2023-10-19T03:21:55.785Z,17.30
2023-10-19T03:24:42.382Z,14.90
2023-10-19T03:27:17.408Z,15.60
2023-10-19T03:30:01.129Z,28.40
2023-10-19T03:32:28.175Z,20.30
2023-10-19T03:34:56.634Z,15.50
2023-10-19T03:37:29.716Z,16.60
2023-10-19T03:39:59.067Z,15.50
2023-10-19T03:42:40.578Z,16.40
2023-10-19T03:45:14.486Z,17.30
2023-10-19T03:47:45.570Z,16.60
2023-10-19T03:50:16.099Z,17.30
2023-10-19T03:52:42.958Z,18.10
2023-10-19T03:55:15.921Z,17.60
2023-10-19T03:57:47.049Z,17.10
2023-10-19T04:00:17.233Z,16.90
2023-10-19T04:02:44.214Z,16.10
2023-10-19T04:05:21.039Z,16.80
2023-10-19T04:07:50.499Z,17.00
2023-10-19T04:10:35.182Z,17.60
2023-10-19T04:13:02.262Z,17.70
2023-10-19T04:15:36.105Z,17.40
2023-10-19T04:18:10.155Z,17.30
2023-10-19T04:20:53.604Z,17.20
2023-10-19T04:23:21.736Z,17.00
2023-10-19T04:25:48.638Z,17.00
2023-10-19T04:28:15.653Z,16.90
2023-10-19T04:30:42.407Z,16.80
2023-10-19T04:33:11.692Z,17.40
2023-10-19T04:35:38.482Z,19.60
2023-10-19T04:38:06.983Z,18.20
2023-10-19T04:40:34.511Z,17.50
2023-10-19T04:43:03.663Z,17.00
2023-10-19T04:45:30.437Z,17.80
2023-10-19T04:47:56.972Z,18.40
2023-10-19T04:50:23.580Z,17.70
2023-10-19T04:52:50.131Z,18.80
2023-10-19T04:55:17.255Z,17.60
2023-10-19T04:57:43.913Z,17.10
2023-10-19T05:00:15.052Z,17.60
2023-10-19T05:02:42.649Z,20.10
2023-10-19T05:05:09.816Z,18.00
2023-10-19T05:07:36.498Z,17.90
2023-10-19T05:10:05.856Z,19.20
2023-10-19T05:12:32.879Z,18.20
2023-10-19T05:14:59.437Z,20.70
2023-10-19T05:17:27.845Z,19.50
2023-10-19T05:19:54.797Z,18.30
2023-10-19T05:22:22.253Z,21.50
2023-10-19T05:24:48.979Z,19.40
2023-10-19T05:27:17.272Z,19.30
2023-10-19T05:29:44.322Z,20.80
2023-10-19T05:32:11.067Z,22.20
2023-10-19T05:34:37.918Z,21.80
2023-10-19T05:37:06.102Z,20.50
2023-10-19T05:39:34.175Z,21.20
2023-10-19T05:42:04.880Z,19.40
2023-10-19T05:44:31.682Z,20.20
2023-10-19T05:47:02.782Z,19.00
2023-10-19T05:49:32.979Z,19.60
2023-10-19T05:51:59.654Z,18.80
2023-10-19T05:54:27.674Z,19.30
2023-10-19T05:56:54.432Z,21.10
2023-10-19T05:59:21.401Z,21.20
2023-10-19T06:01:48.665Z,18.50
2023-10-19T06:04:15.933Z,19.30
2023-10-19T06:06:44.177Z,17.70
2023-10-19T06:09:10.715Z,20.40
2023-10-19T06:11:38.974Z,21.90
2023-10-19T06:14:08.112Z,19.50
2023-10-19T06:16:35.034Z,20.10
2023-10-19T06:19:01.917Z,22.00
2023-10-19T06:21:28.950Z,21.80
2023-10-19T06:23:55.936Z,21.50
2023-10-19T06:26:22.600Z,20.60
2023-10-19T06:28:51.523Z,21.60
2023-10-19T06:31:18.294Z,23.00
2023-10-19T06:33:44.916Z,21.40
2023-10-19T06:36:11.496Z,20.80
2023-10-19T06:38:38.023Z,20.50
2023-10-19T06:41:14.597Z,19.40
2023-10-19T06:43:41.517Z,19.50
2023-10-19T06:46:11.925Z,22.20
2023-10-19T06:48:39.482Z,22.70
2023-10-19T06:51:06.631Z,21.80
2023-10-19T06:53:33.589Z,22.50
2023-10-19T06:56:01.254Z,24.00
2023-10-19T06:58:28.132Z,23.10
2023-10-19T07:00:57.568Z,22.60
2023-10-19T07:03:24.643Z,24.20
2023-10-19T07:05:52.725Z,23.30
2023-10-19T07:08:21.613Z,23.10
2023-10-19T07:10:50.358Z,21.30
2023-10-19T07:13:16.996Z,23.30
2023-10-19T07:15:46.430Z,21.70
2023-10-19T07:18:14.545Z,24.40
2023-10-19T07:20:43.255Z,27.50
2023-10-19T07:23:19.670Z,26.40
2023-10-19T07:25:48.614Z,23.30
2023-10-19T07:28:16.638Z,21.60
2023-10-19T07:30:44.327Z,25.50
2023-10-19T07:33:11.799Z,23.70
2023-10-19T07:35:39.621Z,23.90
2023-10-19T07:38:08.217Z,22.70
2023-10-19T07:40:35.967Z,25.00
2023-10-19T07:43:04.364Z,23.60
2023-10-19T08:37:15.846Z,12.20
2023-10-19T08:39:44.126Z,13.80
2023-10-19T08:42:11.071Z,14.20
2023-10-19T08:44:39.420Z,14.60
2023-10-19T08:47:06.376Z,16.10
2023-10-19T08:49:33.506Z,14.40
2023-10-19T08:52:00.552Z,13.70
2023-10-19T08:54:28.190Z,12.40
2023-10-19T08:56:56.269Z,13.10
2023-10-19T08:59:23.941Z,12.20
2023-10-19T09:01:51.054Z,11.70
2023-10-19T09:04:17.983Z,13.80
2023-10-19T09:06:46.086Z,13.60
2023-10-19T09:09:21.928Z,13.30
2023-10-19T09:11:48.887Z,14.00
2023-10-19T09:14:18.594Z,15.40
2023-10-19T09:16:58.309Z,14.10
2023-10-19T09:19:48.283Z,12.50
2023-10-19T09:22:23.270Z,13.60
2023-10-19T09:24:50.594Z,11.60
2023-10-19T09:27:18.007Z,11.70
2023-10-19T09:29:45.735Z,14.70
2023-10-19T09:32:14.170Z,14.30
2023-10-19T09:34:44.243Z,14.20
2023-10-19T09:37:11.931Z,12.50
2023-10-19T09:39:38.744Z,11.70
2023-10-19T09:42:11.807Z,10.70
2023-10-19T09:44:41.821Z,12.40
2023-10-19T09:47:20.084Z,11.90
2023-10-19T09:49:50.675Z,12.70
2023-10-19T09:58:15.110Z,10.40
2023-10-19T10:00:50.873Z,11.40
2023-10-19T10:03:43.863Z,8.60
2023-10-19T10:06:12.732Z,9.10
2023-10-19T10:08:40.068Z,10.20
2023-10-19T10:11:17.482Z,9.20
2023-10-19T10:13:45.908Z,9.20
2023-10-19T10:16:15.814Z,9.20
2023-10-19T10:18:44.933Z,9.30
2023-10-19T10:21:13.187Z,8.60
2023-10-19T10:23:44.867Z,8.70
2023-10-19T10:26:15.289Z,9.00
2023-10-19T10:28:42.628Z,8.90
2023-10-19T10:31:21.280Z,8.30
2023-10-19T10:33:50.522Z,9.10
2023-10-19T10:36:20.218Z,9.30
2023-10-19T10:38:51.374Z,10.10
2023-10-19T10:41:22.633Z,8.00
2023-10-19T10:43:54.294Z,8.30
2023-10-19T10:46:22.506Z,8.00
2023-10-19T10:48:49.665Z,8.30
2023-10-19T10:51:29.382Z,7.60
2023-10-19T10:53:57.128Z,7.80
2023-10-19T10:56:24.423Z,8.50
2023-10-19T10:58:51.668Z,9.40
2023-10-19T11:01:33.413Z,8.20
2023-10-19T11:04:08.360Z,11.50
2023-10-19T11:06:49.763Z,9.10
2023-10-19T11:09:20.287Z,9.00
2023-10-19T11:11:47.212Z,8.10
2023-10-19T11:14:14.218Z,7.90
2023-10-19T11:16:41.308Z,8.20
2023-10-19T11:19:10.001Z,9.00
2023-10-19T11:21:36.739Z,9.80
2023-10-19T11:24:03.820Z,10.20
2023-10-19T11:26:30.905Z,9.20
2023-10-19T11:29:04.793Z,8.60
2023-10-19T11:31:38.379Z,9.30
2023-10-19T11:34:05.446Z,9.40
2023-10-19T11:36:35.028Z,9.20
2023-10-19T11:39:04.999Z,9.50
2023-10-19T11:41:32.051Z,10.20
2023-10-19T11:43:59.173Z,10.30
2023-10-19T11:46:26.039Z,10.30
2023-10-19T11:48:53.062Z,9.60
2023-10-19T11:51:19.863Z,10.10
2023-10-19T11:53:46.571Z,9.10
2023-10-19T11:56:30.532Z,10.40
2023-10-19T11:58:57.378Z,9.80
2023-10-19T12:01:25.783Z,9.40
2023-10-19T12:03:52.612Z,10.30
2023-10-19T12:06:19.684Z,10.20
2023-10-19T12:08:46.633Z,10.00
2023-10-19T12:11:17.227Z,9.90
2023-10-19T12:13:44.108Z,8.50
2023-10-19T12:16:16.280Z,9.00
2023-10-19T12:18:44.099Z,8.50
2023-10-19T12:21:18.430Z,7.80
2023-10-19T12:23:45.254Z,8.30
2023-10-19T12:26:12.207Z,8.60
2023-10-19T12:28:40.057Z,9.60
2023-10-19T12:31:09.486Z,8.60
2023-10-19T12:33:37.229Z,9.50
2023-10-19T12:36:22.853Z,9.50
2023-10-19T12:38:50.345Z,9.40
2023-10-19T12:41:17.911Z,8.30
2023-10-19T12:43:44.496Z,8.90
2023-10-19T12:46:13.295Z,10.00
2023-10-19T12:48:43.521Z,10.60
2023-10-19T12:51:12.061Z,11.10
2023-10-19T12:53:41.960Z,11.30
2023-10-19T12:56:10.811Z,12.50
2023-10-19T12:58:38.642Z,10.40
2023-10-19T13:01:17.912Z,10.60
2023-10-19T13:03:49.922Z,11.10
2023-10-19T13:06:17.455Z,12.20
2023-10-19T13:08:44.302Z,13.20
2023-10-19T13:11:18.036Z,12.10
2023-10-19T13:13:47.012Z,10.90
2023-10-19T13:16:15.563Z,12.10
2023-10-19T13:18:42.427Z,12.90
2023-10-19T13:21:17.291Z,14.00
2023-10-19T13:23:44.811Z,13.30
2023-10-19T13:26:18.063Z,10.90
2023-10-19T13:28:45.385Z,12.50
2023-10-19T13:31:14.496Z,12.30
2023-10-19T13:33:42.488Z,11.90
2023-10-19T13:36:09.497Z,12.40
2023-10-19T13:38:36.178Z,10.60
2023-10-19T13:41:10.545Z,9.90
2023-10-19T13:43:40.765Z,10.80
2023-10-19T13:46:07.705Z,11.20
2023-10-19T13:48:34.640Z,11.20
2023-10-19T13:51:01.357Z,11.60
2023-10-19T13:53:28.184Z,11.60
2023-10-19T13:55:55.699Z,10.50
2023-10-19T13:58:23.837Z,9.70
2023-10-19T14:00:50.597Z,10.50
2023-10-19T14:03:17.494Z,10.80
2023-10-19T14:05:48.833Z,11.20
2023-10-19T14:08:17.073Z,10.80
2023-10-19T14:10:44.043Z,11.20
2023-10-19T14:13:11.978Z,10.70
2023-10-19T14:15:39.280Z,10.20
2023-10-19T14:18:06.220Z,10.30
2023-10-19T14:20:34.565Z,11.90
2023-10-19T14:23:03.138Z,11.70
2023-10-19T14:25:30.011Z,10.50
2023-10-19T14:27:59.926Z,10.90
2023-10-19T14:30:28.927Z,11.50
2023-10-19T14:32:55.726Z,13.90
2023-10-19T14:35:23.717Z,14.90
2023-10-19T14:37:55.133Z,14.20
2023-10-19T14:40:26.500Z,14.40
2023-10-19T14:42:56.202Z,13.70
2023-10-19T14:45:32.916Z,13.50
2023-10-19T14:48:03.183Z,15.30
2023-10-19T14:50:30.848Z,15.90
2023-10-19T14:52:57.748Z,15.80
2023-10-19T14:55:25.035Z,14.70
2023-10-19T14:57:54.044Z,15.40
2023-10-19T15:00:26.737Z,14.60
2023-10-19T15:03:00.912Z,15.20
2023-10-19T15:05:28.932Z,13.00
2023-10-19T15:07:58.792Z,13.10
2023-10-19T15:10:26.736Z,13.30
2023-10-19T15:12:54.083Z,13.50
2023-10-19T15:15:21.510Z,13.30
2023-10-19T15:17:48.460Z,13.90
2023-10-19T15:20:15.772Z,14.50
2023-10-19T15:22:44.150Z,14.00
2023-10-19T15:25:12.763Z,13.60
2023-10-19T15:27:40.749Z,12.80
2023-10-19T15:30:08.435Z,14.60
2023-10-19T15:32:39.007Z,13.50
2023-10-19T15:35:06.076Z,14.60
2023-10-19T15:37:33.053Z,14.70
2023-10-19T15:39:59.902Z,15.60
2023-10-19T15:42:26.645Z,17.10
2023-10-19T15:44:53.321Z,17.30
2023-10-19T15:47:20.238Z,17.20
2023-10-19T15:49:52.622Z,17.20
2023-10-19T15:52:23.146Z,17.20
2023-10-19T15:54:51.049Z,16.90
2023-10-19T15:57:20.219Z,16.50
2023-10-19T15:59:47.217Z,17.30
2023-10-19T16:02:14.832Z,16.20
2023-10-19T16:04:42.481Z,16.20
2023-10-19T16:07:10.812Z,15.30
2023-10-19T16:09:38.190Z,17.00
2023-10-19T16:12:05.623Z,16.00
2023-10-19T16:14:32.695Z,15.20
2023-10-19T16:16:59.681Z,16.10
2023-10-19T16:19:26.595Z,16.20
2023-10-19T16:21:53.302Z,15.60
2023-10-19T16:24:19.963Z,14.40
2023-10-19T16:26:46.988Z,15.10
2023-10-19T16:29:17.086Z,15.30
2023-10-19T16:31:45.070Z,15.90
2023-10-19T16:34:13.023Z,15.00
2023-10-19T16:36:40.318Z,16.10
2023-10-19T16:39:13.513Z,14.90
2023-10-19T16:41:40.369Z,16.00
2023-10-19T16:44:07.720Z,15.20
2023-10-19T16:46:34.613Z,16.70
2023-10-19T16:49:01.355Z,16.10
2023-10-19T16:51:29.018Z,16.10
2023-10-19T16:53:57.385Z,15.60
2023-10-19T16:56:24.231Z,15.40
2023-10-19T16:58:50.974Z,15.80
2023-10-19T17:01:17.871Z,16.70
2023-10-19T17:03:45.442Z,16.40
2023-10-19T17:06:12.719Z,15.80
2023-10-19T17:08:40.490Z,14.90
2023-10-19T17:11:08.481Z,15.80
2023-10-19T17:13:36.352Z,15.90
2023-10-19T17:16:03.503Z,15.20
2023-10-19T17:18:30.536Z,15.60
2023-10-19T17:20:57.351Z,15.20
2023-10-19T17:23:24.350Z,14.60
2023-10-19T17:25:51.592Z,16.60
2023-10-19T17:28:18.455Z,15.60
2023-10-19T17:30:46.500Z,16.10
2023-10-19T17:33:13.761Z,16.00
2023-10-19T17:35:40.705Z,15.40
2023-10-19T17:38:09.033Z,16.30
2023-10-19T17:40:35.934Z,15.90
2023-10-19T17:43:02.844Z,16.40
2023-10-19T17:45:30.994Z,16.10
2023-10-19T17:47:57.953Z,16.80
2023-10-19T17:50:25.996Z,17.50
2023-10-19T17:52:52.988Z,16.80
2023-10-19T17:55:20.967Z,16.50
2023-10-19T17:57:50.991Z,17.00
2023-10-19T18:00:21.077Z,16.90
2023-10-19T18:02:48.471Z,17.40
2023-10-19T18:05:17.142Z,16.80
2023-10-19T18:07:44.624Z,18.70
2023-10-19T18:10:14.468Z,18.70
2023-10-19T18:12:41.346Z,17.50
2023-10-19T18:15:09.199Z,19.10
2023-10-19T18:17:36.272Z,18.80
2023-10-19T18:20:08.355Z,17.30
2023-10-19T18:22:36.614Z,19.00
2023-10-19T18:25:03.804Z,18.30
2023-10-19T18:27:30.847Z,17.20
2023-10-19T18:29:57.659Z,17.20
2023-10-19T18:32:24.502Z,17.20
2023-10-19T18:34:51.554Z,17.80
2023-10-19T18:37:18.293Z,18.10
2023-10-19T18:39:45.125Z,17.50
2023-10-19T18:42:12.063Z,17.20
2023-10-19T18:44:39.214Z,17.80
2023-10-19T18:47:06.345Z,17.80
2023-10-19T18:49:35.177Z,17.50
2023-10-19T18:52:07.655Z,18.80
2023-10-19T18:54:34.407Z,17.60
2023-10-19T18:57:01.226Z,18.60
2023-10-19T18:59:27.960Z,19.10
2023-10-19T19:01:54.894Z,18.50
2023-10-19T19:04:22.735Z,18.10
2023-10-19T19:06:49.582Z,19.10
2023-10-19T19:09:18.208Z,18.60
2023-10-19T19:11:46.570Z,18.70
2023-10-19T19:14:13.363Z,18.80
2023-10-19T19:16:40.917Z,20.50
2023-10-19T19:19:08.183Z,19.20
2023-10-19T19:21:35.726Z,21.80
2023-10-19T19:24:02.698Z,21.70
2023-10-19T19:26:29.620Z,23.10
2023-10-19T19:28:57.213Z,24.30
2023-10-19T19:31:24.495Z,23.80
2023-10-19T19:33:51.659Z,23.10
2023-10-19T19:36:18.522Z,22.90
2023-10-19T19:38:46.147Z,20.60
2023-10-19T19:41:13.627Z,20.00
2023-10-19T19:43:40.554Z,19.10
2023-10-19T19:46:07.666Z,18.30
2023-10-19T19:48:34.407Z,19.70
2023-10-19T19:51:01.265Z,21.20
2023-10-19T19:53:27.883Z,21.00
2023-10-19T19:55:54.445Z,18.90
2023-10-19T19:58:21.181Z,18.40
2023-10-19T20:00:47.725Z,18.10
2023-10-19T20:03:14.640Z,18.70
2023-10-19T20:05:42.637Z,18.70
2023-10-19T20:08:12.089Z,17.70
2023-10-19T20:10:43.397Z,20.70
2023-10-19T20:13:10.703Z,20.80
2023-10-19T20:15:39.428Z,20.90
2023-10-19T20:18:06.120Z,22.30
2023-10-19T20:20:33.905Z,21.30
2023-10-19T20:23:00.917Z,20.10
2023-10-19T20:25:28.411Z,21.40
2023-10-19T20:27:56.196Z,20.90
2023-10-19T20:30:23.554Z,20.90
2023-10-19T20:32:50.578Z,20.60
2023-10-19T20:35:18.319Z,18.30
2023-10-19T20:37:44.919Z,19.00
2023-10-19T20:40:20.060Z,19.20
2023-10-19T20:42:52.336Z,20.80
2023-10-19T20:45:19.180Z,20.20
2023-10-19T20:47:56.672Z,19.10
2023-10-19T20:50:24.242Z,18.70
2023-10-19T20:52:53.028Z,19.90
2023-10-19T20:55:20.007Z,21.50
2023-10-19T20:57:49.810Z,19.70
2023-10-19T21:00:16.981Z,21.20
2023-10-19T21:02:46.611Z,24.10
2023-10-19T21:05:19.118Z,23.20
2023-10-19T21:07:49.378Z,22.70
2023-10-19T21:10:19.127Z,23.40
2023-10-19T21:12:45.808Z,27.40
2023-10-19T21:15:13.268Z,27.70
2023-10-19T21:17:51.042Z,29.20
2023-10-19T21:20:18.683Z,28.00
2023-10-19T21:22:49.657Z,27.70
2023-10-19T21:25:17.836Z,25.00
2023-10-19T21:27:45.097Z,25.10
2023-10-19T21:30:13.601Z,22.50
2023-10-19T21:32:42.723Z,21.20
2023-10-19T21:35:10.180Z,21.80
2023-10-19T21:37:37.153Z,23.00
2023-10-19T21:40:06.380Z,21.80
2023-10-19T21:42:33.083Z,21.50
2023-10-19T21:44:59.825Z,21.70
2023-10-19T21:47:26.549Z,20.80
2023-10-19T21:49:53.829Z,21.70
2023-10-19T21:52:24.244Z,22.00
2023-10-19T21:54:51.406Z,21.50
2023-10-19T21:57:18.329Z,20.50
2023-10-19T21:59:45.471Z,22.50
2023-10-19T22:02:12.126Z,24.60
2023-10-19T22:04:38.898Z,22.90
2023-10-19T22:07:05.922Z,21.30
2023-10-19T22:12:18.049Z,22.70
2023-10-19T22:14:46.680Z,23.70
2023-10-19T22:17:16.632Z,22.40
2023-10-19T22:19:44.531Z,23.00
2023-10-19T22:22:13.176Z,21.40
2023-10-19T22:24:40.533Z,23.40
2023-10-19T22:27:08.225Z,24.20
2023-10-19T22:29:35.671Z,22.30
2023-10-19T22:32:08.541Z,21.50
2023-10-19T22:34:36.074Z,22.60
2023-10-19T22:37:04.433Z,23.30
2023-10-19T22:39:31.889Z,23.50
2023-10-19T22:41:59.309Z,23.10
2023-10-19T22:44:26.726Z,22.90
2023-10-19T22:46:54.287Z,23.20
2023-10-19T22:49:23.565Z,24.30
2023-10-19T22:51:50.929Z,23.50
2023-10-19T22:54:18.343Z,23.00
2023-10-19T22:56:45.786Z,21.70
2023-10-19T22:59:13.205Z,22.60
2023-10-19T23:01:41.311Z,23.20
2023-10-19T23:04:08.819Z,25.00
2023-10-19T23:06:36.419Z,22.60
2023-10-19T23:09:05.189Z,21.80
2023-10-19T23:11:32.800Z,23.20
2023-10-19T23:14:04.916Z,25.10
2023-10-19T23:16:37.430Z,22.70
2023-10-19T23:19:04.927Z,21.70
2023-10-19T23:21:34.303Z,22.30
2023-10-19T23:24:01.901Z,23.50
2023-10-19T23:26:30.773Z,25.20
2023-10-19T23:29:04.696Z,25.50
2023-10-19T23:31:34.856Z,23.70
2023-10-19T23:34:04.914Z,22.90
2023-10-19T23:36:32.539Z,24.20
2023-10-19T23:39:04.628Z,25.70
2023-10-19T23:41:32.150Z,24.10
2023-10-19T23:43:59.729Z,22.90
2023-10-19T23:46:27.650Z,24.70
2023-10-19T23:48:55.032Z,25.60
2023-10-19T23:51:22.701Z,24.50
2023-10-19T23:53:52.062Z,24.50
2023-10-19T23:56:20.199Z,23.40
2023-10-19T23:58:47.564Z,24.70
